Time;durP1;ratioP1;P1;durP2;ratioP2;P2;SDS_P1;SDS_P2;PMS_P1;PMS_P2;Temp;Humidity;BMP_temperature;BMP_pressure;BME280_temperature;BME280_humidity;BME280_pressure;Samples;Min_cycle;Max_cycle;Signal;HPM_P1;HPM_P2
2023/10/20 00:01:22;;;;;;;40.22;21.42;;;;;;;;;;5051687;28;20110;-64
2023/10/20 00:03:48;;;;;;;44.08;20.75;;;;;;;;;;5051528;28;20131;-64
2023/10/20 00:06:14;;;;;;;39.60;20.55;;;;;;;;;;5051075;28;20132;-64
2023/10/20 00:08:40;;;;;;;38.20;20.17;;;;;;;;;;5051596;28;20044;-64
2023/10/20 00:11:07;;;;;;;41.58;21.83;;;;;;;;;;5051507;28;20033;-64
2023/10/20 00:13:34;;;;;;;43.00;20.45;;;;;;;;;;5050955;28;20415;-64
2023/10/20 00:16:00;;;;;;;41.20;21.20;;;;;;;;;;5051493;28;20095;-64
2023/10/20 00:18:26;;;;;;;40.35;20.95;;;;;;;;;;5051285;28;20519;-64
2023/10/20 00:20:52;;;;;;;42.55;20.55;;;;;;;;;;5050873;28;20084;-64
2023/10/20 00:23:18;;;;;;;38.30;20.13;;;;;;;;;;5051483;28;20049;-64
2023/10/20 00:25:44;;;;;;;36.47;19.52;;;;;;;;;;5053174;28;20091;-64
2023/10/20 00:28:10;;;;;;;40.20;20.83;;;;;;;;;;5055081;28;20124;-64
2023/10/20 00:30:38;;;;;;;41.75;19.40;;;;;;;;;;5055228;28;20785;-64
2023/10/20 00:33:05;;;;;;;41.25;20.85;;;;;;;;;;5055003;28;20049;-64
2023/10/20 00:35:31;;;;;;;35.33;19.70;;;;;;;;;;5054792;28;20168;-64
2023/10/20 00:37:57;;;;;;;41.88;20.63;;;;;;;;;;5055288;28;20056;-64
2023/10/20 00:40:24;;;;;;;43.30;20.65;;;;;;;;;;5054611;28;20052;-64
2023/10/20 00:42:50;;;;;;;44.05;21.13;;;;;;;;;;5054855;28;20098;-64
2023/10/20 00:45:16;;;;;;;53.97;20.70;;;;;;;;;;5054705;28;20131;-64
2023/10/20 00:47:44;;;;;;;44.47;20.30;;;;;;;;;;5055239;28;20094;-64
2023/10/20 00:50:13;;;;;;;40.83;20.95;;;;;;;;;;5054430;28;20053;-64
2023/10/20 00:52:39;;;;;;;49.15;21.48;;;;;;;;;;5054981;28;20041;-64
2023/10/20 00:55:07;;;;;;;41.53;20.13;;;;;;;;;;5054941;28;20411;-64
2023/10/20 00:57:34;;;;;;;52.95;20.88;;;;;;;;;;5054539;28;20055;-64
2023/10/20 01:00:03;;;;;;;38.58;20.35;;;;;;;;;;5055024;28;20045;-64
2023/10/20 01:02:30;;;;;;;50.47;20.48;;;;;;;;;;5054755;28;20037;-64
2023/10/20 01:04:57;;;;;;;41.78;20.85;;;;;;;;;;5054226;28;20044;-64
2023/10/20 01:07:24;;;;;;;42.47;21.17;;;;;;;;;;5054882;28;20442;-64
2023/10/20 01:09:50;;;;;;;40.45;21.08;;;;;;;;;;5054805;28;20403;-64
2023/10/20 01:12:17;;;;;;;41.22;21.52;;;;;;;;;;5054108;28;20037;-64
2023/10/20 01:14:43;;;;;;;40.25;20.60;;;;;;;;;;5036338;28;20057;-64
2023/10/20 01:17:10;;;;;;;42.72;20.55;;;;;;;;;;5054549;28;20127;-64
2023/10/20 01:19:40;;;;;;;44.08;21.52;;;;;;;;;;5054699;28;20048;-64
2023/10/20 01:22:06;;;;;;;45.58;20.88;;;;;;;;;;5054896;28;20150;-64
2023/10/20 01:24:32;;;;;;;44.20;20.08;;;;;;;;;;5054549;28;20045;-64
2023/10/20 01:26:58;;;;;;;45.20;22.55;;;;;;;;;;5053989;28;20045;-64
2023/10/20 01:29:24;;;;;;;47.78;21.70;;;;;;;;;;5054514;28;20033;-64
2023/10/20 01:31:50;;;;;;;53.42;22.48;;;;;;;;;;5054540;28;20041;-64
2023/10/20 01:34:16;;;;;;;44.83;21.05;;;;;;;;;;5054042;28;20044;-64
2023/10/20 01:36:43;;;;;;;49.60;21.08;;;;;;;;;;5052839;28;20125;-64
2023/10/20 01:39:09;;;;;;;41.33;20.70;;;;;;;;;;5054230;28;20048;-64
2023/10/20 01:41:36;;;;;;;49.15;21.13;;;;;;;;;;5053749;28;20041;-64
2023/10/20 01:44:02;;;;;;;52.08;22.58;;;;;;;;;;5053880;28;20055;-64
2023/10/20 01:46:28;;;;;;;45.28;22.10;;;;;;;;;;5054128;28;20547;-64
2023/10/20 01:48:54;;;;;;;42.15;21.13;;;;;;;;;;5053624;28;20537;-64
2023/10/20 01:51:20;;;;;;;40.88;21.23;;;;;;;;;;5054111;28;20040;-64
2023/10/20 01:53:46;;;;;;;57.20;21.83;;;;;;;;;;5053372;28;20049;-64
2023/10/20 01:56:13;;;;;;;43.75;22.15;;;;;;;;;;5053482;28;20049;-64
2023/10/20 01:58:39;;;;;;;45.53;20.50;;;;;;;;;;5053832;28;20048;-64
2023/10/20 02:01:05;;;;;;;42.00;22.02;;;;;;;;;;5053509;28;20041;-64
2023/10/20 02:03:31;;;;;;;44.95;20.42;;;;;;;;;;5053370;28;20045;-64
2023/10/20 02:05:57;;;;;;;48.28;22.60;;;;;;;;;;5053505;28;20525;-64
2023/10/20 02:08:23;;;;;;;48.83;21.20;;;;;;;;;;5053693;28;20033;-64
2023/10/20 02:10:49;;;;;;;36.92;20.60;;;;;;;;;;5052802;28;20057;-64
2023/10/20 02:13:15;;;;;;;45.30;21.27;;;;;;;;;;5053467;28;20037;-64
2023/10/20 02:15:50;;;;;;;40.67;21.15;;;;;;;;;;5053434;28;20044;-64
2023/10/20 02:18:17;;;;;;;46.15;20.35;;;;;;;;;;5052900;28;20040;-64
2023/10/20 02:20:43;;;;;;;39.50;20.52;;;;;;;;;;5053141;28;20059;-64
2023/10/20 02:23:09;;;;;;;44.83;19.95;;;;;;;;;;5053104;28;20051;-64
2023/10/20 02:25:36;;;;;;;40.00;21.85;;;;;;;;;;5052732;28;20481;-64
2023/10/20 02:28:02;;;;;;;47.92;21.23;;;;;;;;;;5053193;28;20646;-64
2023/10/20 02:30:34;;;;;;;38.17;20.42;;;;;;;;;;5053239;28;20072;-64
2023/10/20 02:33:02;;;;;;;40.15;19.73;;;;;;;;;;5053106;28;20032;-64
2023/10/20 02:35:28;;;;;;;41.20;20.60;;;;;;;;;;5052933;28;20472;-64
2023/10/20 02:37:54;;;;;;;42.42;19.88;;;;;;;;;;5052972;28;20131;-64
2023/10/20 02:40:20;;;;;;;41.08;20.83;;;;;;;;;;5052782;28;20041;-64
2023/10/20 02:42:46;;;;;;;44.10;21.35;;;;;;;;;;5053041;28;20052;-64
2023/10/20 02:45:12;;;;;;;38.25;20.35;;;;;;;;;;5052896;28;20068;-64
2023/10/20 02:47:38;;;;;;;41.53;20.45;;;;;;;;;;5052633;28;20030;-64
2023/10/20 02:50:06;;;;;;;48.03;21.10;;;;;;;;;;5052601;28;20435;-64
2023/10/20 02:52:32;;;;;;;36.88;20.52;;;;;;;;;;5052848;28;20052;-64
2023/10/20 02:54:58;;;;;;;36.70;18.63;;;;;;;;;;5052328;28;20061;-64
2023/10/20 02:57:24;;;;;;;41.92;20.88;;;;;;;;;;5052383;28;20049;-64
2023/10/20 02:59:50;;;;;;;37.75;20.08;;;;;;;;;;5052446;28;20040;-64
2023/10/20 03:02:17;;;;;;;39.45;19.45;;;;;;;;;;5052669;28;20037;-64
2023/10/20 03:04:43;;;;;;;38.83;20.05;;;;;;;;;;5052273;28;20549;-64
2023/10/20 03:07:09;;;;;;;36.80;19.10;;;;;;;;;;5052222;28;20522;-64
2023/10/20 03:09:36;;;;;;;35.97;19.10;;;;;;;;;;5052628;28;20048;-64
2023/10/20 03:12:02;;;;;;;33.65;18.55;;;;;;;;;;5052263;28;20113;-64
2023/10/20 03:14:28;;;;;;;38.95;20.40;;;;;;;;;;5034276;28;20037;-64
2023/10/20 03:16:54;;;;;;;30.92;18.52;;;;;;;;;;5052005;28;20455;-64
2023/10/20 03:19:22;;;;;;;37.53;20.05;;;;;;;;;;5052065;28;20044;-64
2023/10/20 03:21:48;;;;;;;42.75;21.17;;;;;;;;;;5052131;28;20551;-64
2023/10/20 03:24:14;;;;;;;37.40;20.95;;;;;;;;;;5052068;28;20037;-64
2023/10/20 03:26:40;;;;;;;44.30;20.83;;;;;;;;;;5051641;28;20344;-64
2023/10/20 03:29:07;;;;;;;34.42;19.95;;;;;;;;;;5052405;28;20467;-64
2023/10/20 03:31:34;;;;;;;33.67;19.48;;;;;;;;;;5034031;28;20640;-64
2023/10/20 03:34:00;;;;;;;30.17;19.85;;;;;;;;;;5051493;28;20053;-64
2023/10/20 03:36:27;;;;;;;35.50;20.73;;;;;;;;;;5052176;28;20045;-64
2023/10/20 03:38:53;;;;;;;36.65;20.10;;;;;;;;;;5051678;28;20123;-64
2023/10/20 03:41:19;;;;;;;33.92;18.75;;;;;;;;;;5051544;28;20048;-64
2023/10/20 03:43:45;;;;;;;36.80;20.63;;;;;;;;;;5051925;28;20040;-64
2023/10/20 03:46:13;;;;;;;36.35;20.05;;;;;;;;;;5051529;28;20136;-64
2023/10/20 03:48:40;;;;;;;34.80;19.90;;;;;;;;;;5051222;28;20077;-64
2023/10/20 03:51:13;;;;;;;34.15;19.85;;;;;;;;;;5051748;28;20044;-64
2023/10/20 03:53:54;;;;;;;36.65;19.50;;;;;;;;;;5051337;28;20442;-64
2023/10/20 03:56:22;;;;;;;35.40;19.80;;;;;;;;;;5051304;28;20049;-64
2023/10/20 03:58:48;;;;;;;31.40;18.65;;;;;;;;;;5034198;28;20080;-64
2023/10/20 04:01:14;;;;;;;32.80;19.30;;;;;;;;;;5050904;28;20043;-64
2023/10/20 04:03:40;;;;;;;34.08;18.88;;;;;;;;;;5051078;28;20041;-64
2023/10/20 04:06:11;;;;;;;34.33;19.85;;;;;;;;;;5051437;28;20091;-64
2023/10/20 04:08:37;;;;;;;31.33;18.92;;;;;;;;;;5051309;28;20033;-64
2023/10/20 04:11:03;;;;;;;35.05;19.83;;;;;;;;;;5051107;28;20120;-64
2023/10/20 04:13:31;;;;;;;34.97;19.88;;;;;;;;;;5051276;28;20033;-64
2023/10/20 04:15:59;;;;;;;34.70;19.27;;;;;;;;;;5051373;28;20402;-64
2023/10/20 04:18:26;;;;;;;35.47;20.25;;;;;;;;;;5051052;28;20048;-64
2023/10/20 04:20:57;;;;;;;32.97;18.92;;;;;;;;;;5051497;28;20055;-64
2023/10/20 04:23:23;;;;;;;33.03;20.17;;;;;;;;;;5033248;28;20395;-64
2023/10/20 04:25:52;;;;;;;34.40;19.75;;;;;;;;;;5050757;28;20049;-63
2023/10/20 04:28:43;;;;;;;32.90;20.10;;;;;;;;;;5051146;28;20033;-63
2023/10/20 04:47:42;;;;;;;34.10;20.75;;;;;;;;;;5050605;28;20538;-64
2023/10/20 04:58:33;;;;;;;32.08;19.05;;;;;;;;;;5050789;28;20041;-64
2023/10/20 05:01:07;;;;;;;33.33;19.50;;;;;;;;;;5050564;28;20090;-64
2023/10/20 05:03:45;;;;;;;33.03;18.60;;;;;;;;;;5050941;28;20570;-64
2023/10/20 05:06:22;;;;;;;33.92;18.98;;;;;;;;;;5050731;28;20041;-64
2023/10/20 05:08:49;;;;;;;33.25;18.77;;;;;;;;;;5050346;28;20040;-64
2023/10/20 05:11:15;;;;;;;36.33;18.80;;;;;;;;;;5052169;28;20041;-64
2023/10/20 05:13:42;;;;;;;36.45;19.70;;;;;;;;;;5054454;28;20037;-64
2023/10/20 05:16:11;;;;;;;39.63;20.25;;;;;;;;;;5054438;28;20041;-64
2023/10/20 05:18:38;;;;;;;36.53;18.98;;;;;;;;;;5054446;28;20041;-64
2023/10/20 05:21:11;;;;;;;35.47;19.58;;;;;;;;;;5054740;28;20387;-64
2023/10/20 05:23:38;;;;;;;30.30;18.38;;;;;;;;;;5052914;28;20037;-64
2023/10/20 05:26:04;;;;;;;34.50;19.10;;;;;;;;;;5054455;28;20167;-64
2023/10/20 05:28:34;;;;;;;34.83;19.58;;;;;;;;;;5052666;28;20048;-64
2023/10/20 05:31:00;;;;;;;31.73;18.23;;;;;;;;;;5052129;28;20056;-64
2023/10/20 05:33:26;;;;;;;33.05;18.98;;;;;;;;;;5053673;28;20652;-64
2023/10/20 05:35:52;;;;;;;29.77;18.55;;;;;;;;;;5054287;28;20743;-64
2023/10/20 05:38:19;;;;;;;31.73;18.65;;;;;;;;;;5053734;28;20048;-64
2023/10/20 05:40:46;;;;;;;33.95;17.20;;;;;;;;;;5053121;28;20676;-64
2023/10/20 05:43:12;;;;;;;32.78;18.20;;;;;;;;;;5052227;28;20491;-63
2023/10/20 05:45:41;;;;;;;30.13;18.15;;;;;;;;;;5052761;28;20365;-63
2023/10/20 05:48:07;;;;;;;31.30;18.38;;;;;;;;;;5053207;28;20037;-63
2023/10/20 05:50:35;;;;;;;33.63;18.00;;;;;;;;;;5053398;28;20403;-63
2023/10/20 05:53:01;;;;;;;28.73;18.17;;;;;;;;;;5052909;28;20064;-63
2023/10/20 05:55:27;;;;;;;32.83;18.27;;;;;;;;;;5053033;28;20059;-63
2023/10/20 05:57:53;;;;;;;35.40;18.20;;;;;;;;;;5052967;28;20466;-63
2023/10/20 06:00:19;;;;;;;30.95;17.27;;;;;;;;;;5052951;28;20041;-63
2023/10/20 06:02:46;;;;;;;27.77;17.05;;;;;;;;;;5052655;28;20045;-63
2023/10/20 06:05:13;;;;;;;26.80;16.35;;;;;;;;;;5052981;28;20124;-62
2023/10/20 06:07:40;;;;;;;29.58;17.55;;;;;;;;;;5052623;28;20730;-62
2023/10/20 06:10:08;;;;;;;31.77;17.85;;;;;;;;;;5034991;28;20048;-62
2023/10/20 06:12:34;;;;;;;27.02;16.85;;;;;;;;;;5053067;28;20099;-63
2023/10/20 06:15:00;;;;;;;28.00;15.93;;;;;;;;;;5052214;28;20107;-62
2023/10/20 06:17:26;;;;;;;25.20;15.52;;;;;;;;;;5052828;28;20507;-62
2023/10/20 06:19:52;;;;;;;24.70;15.55;;;;;;;;;;5051456;28;20068;-63
2023/10/20 06:22:19;;;;;;;23.52;14.75;;;;;;;;;;5051115;28;20072;-63
2023/10/20 06:24:47;;;;;;;21.92;14.02;;;;;;;;;;5029012;28;20079;-64
2023/10/20 06:27:13;;;;;;;25.08;15.05;;;;;;;;;;5051453;28;20037;-64
2023/10/20 06:29:47;;;;;;;22.20;13.38;;;;;;;;;;5052259;28;20040;-63
2023/10/20 06:32:25;;;;;;;25.75;14.50;;;;;;;;;;5052195;28;20041;-64
2023/10/20 06:34:57;;;;;;;25.15;13.77;;;;;;;;;;5051723;28;20033;-64
2023/10/20 06:37:36;;;;;;;;;;;;;;;;;;5052209;28;20033;-64
2023/10/20 06:40:05;;;;;;;17.65;11.98;;;;;;;;;;5051222;28;19920;-61
2023/10/20 06:42:32;;;;;;;21.15;13.65;;;;;;;;;;5051853;28;20099;-61
2023/10/20 06:45:01;;;;;;;20.60;12.50;;;;;;;;;;5051205;28;20055;-61
2023/10/20 06:47:27;;;;;;;21.65;12.27;;;;;;;;;;5051523;28;20049;-61
2023/10/20 06:49:53;;;;;;;20.67;12.50;;;;;;;;;;5051522;28;20037;-61
2023/10/20 06:52:19;;;;;;;20.02;11.93;;;;;;;;;;5051569;28;20090;-61
2023/10/20 06:54:46;;;;;;;20.98;12.00;;;;;;;;;;5051447;28;20729;-61
2023/10/20 06:57:14;;;;;;;17.30;11.38;;;;;;;;;;5051508;28;20072;-61
2023/10/20 06:59:40;;;;;;;19.30;11.57;;;;;;;;;;5050752;28;20052;-60
2023/10/20 07:02:06;;;;;;;17.35;11.25;;;;;;;;;;5050966;28;20135;-61
2023/10/20 07:04:32;;;;;;;16.70;10.98;;;;;;;;;;5051520;28;20060;-61
2023/10/20 07:06:58;;;;;;;18.45;12.07;;;;;;;;;;5050565;28;20047;-61
2023/10/20 07:09:24;;;;;;;18.80;11.23;;;;;;;;;;5051631;28;20136;-61
2023/10/20 07:11:52;;;;;;;20.23;11.80;;;;;;;;;;5051155;28;20060;-60
2023/10/20 07:14:18;;;;;;;18.63;11.48;;;;;;;;;;5050739;28;20037;-60
2023/10/20 07:16:44;;;;;;;17.52;11.43;;;;;;;;;;5050668;28;20032;-63
2023/10/20 07:19:11;;;;;;;15.80;10.80;;;;;;;;;;5041653;28;20120;-64
2023/10/20 07:21:37;;;;;;;17.33;10.40;;;;;;;;;;5050156;28;20045;-63
2023/10/20 07:24:03;;;;;;;13.23;9.70;;;;;;;;;;5049742;28;20040;-63
2023/10/20 07:26:29;;;;;;;15.25;10.18;;;;;;;;;;5049867;28;20643;-63
2023/10/20 07:28:55;;;;;;;14.68;10.50;;;;;;;;;;5050568;28;20041;-62
2023/10/20 07:31:21;;;;;;;15.30;9.98;;;;;;;;;;5050292;28;20045;-63
2023/10/20 07:33:51;;;;;;;14.30;9.63;;;;;;;;;;5050127;28;20464;-63
2023/10/20 07:36:17;;;;;;;14.63;9.82;;;;;;;;;;5049740;28;20132;-62
2023/10/20 07:38:44;;;;;;;14.88;9.88;;;;;;;;;;5050381;28;20045;-62
2023/10/20 07:41:11;;;;;;;14.50;9.45;;;;;;;;;;5050102;28;20041;-63
2023/10/20 07:43:38;;;;;;;14.50;9.07;;;;;;;;;;5049998;28;20041;-62
2023/10/20 07:46:05;;;;;;;11.80;8.40;;;;;;;;;;5049905;28;20128;-63
2023/10/20 07:48:32;;;;;;;15.13;9.00;;;;;;;;;;5050287;28;20527;-63
2023/10/20 07:51:01;;;;;;;11.45;8.18;;;;;;;;;;5048528;28;20053;-62
2023/10/20 07:53:29;;;;;;;13.35;8.07;;;;;;;;;;5048674;28;20053;-61
2023/10/20 07:55:55;;;;;;;12.05;7.60;;;;;;;;;;5049088;28;20037;-64
2023/10/20 07:58:21;;;;;;;10.85;7.40;;;;;;;;;;5043474;28;20029;-63
2023/10/20 08:00:47;;;;;;;11.40;7.05;;;;;;;;;;5048692;28;20067;-63
2023/10/20 08:03:13;;;;;;;11.85;7.72;;;;;;;;;;5049293;28;20052;-64
2023/10/20 08:05:40;;;;;;;12.02;6.10;;;;;;;;;;5049396;28;20057;-63
2023/10/20 08:08:06;;;;;;;10.70;6.45;;;;;;;;;;5048881;28;20121;-63
2023/10/20 08:10:32;;;;;;;9.18;6.03;;;;;;;;;;5050223;28;20127;-63
2023/10/20 08:12:59;;;;;;;9.18;5.72;;;;;;;;;;5049841;28;20044;-63
2023/10/20 08:15:28;;;;;;;8.63;5.55;;;;;;;;;;5049981;28;20033;-64
2023/10/20 08:17:57;;;;;;;8.68;4.97;;;;;;;;;;5049601;28;20087;-63
2023/10/20 08:20:23;;;;;;;6.53;4.10;;;;;;;;;;5049556;28;20068;-62
2023/10/20 08:22:49;;;;;;;7.22;4.72;;;;;;;;;;5031954;28;20049;-63
2023/10/20 08:25:16;;;;;;;6.63;4.03;;;;;;;;;;5049821;28;20648;-63
2023/10/20 08:27:42;;;;;;;6.75;3.80;;;;;;;;;;5049698;28;20120;-63
2023/10/20 08:30:08;;;;;;;8.13;4.30;;;;;;;;;;5049646;28;20127;-63
2023/10/20 08:32:34;;;;;;;5.22;3.42;;;;;;;;;;5049626;28;20391;-63
2023/10/20 08:35:00;;;;;;;6.50;3.53;;;;;;;;;;5047544;28;20071;-63
2023/10/20 08:37:28;;;;;;;4.78;3.10;;;;;;;;;;5038704;28;20509;-64
2023/10/20 08:39:54;;;;;;;3.60;2.80;;;;;;;;;;5049267;28;20052;-64
2023/10/20 08:42:24;;;;;;;4.43;3.10;;;;;;;;;;5049851;28;20443;-64
2023/10/20 08:44:50;;;;;;;4.55;3.13;;;;;;;;;;5049449;28;20107;-64
2023/10/20 08:47:17;;;;;;;4.80;3.10;;;;;;;;;;5052672;28;20041;-64
2023/10/20 08:49:44;;;;;;;3.80;2.92;;;;;;;;;;5053800;28;20120;-64
2023/10/20 08:52:14;;;;;;;3.38;2.55;;;;;;;;;;5052552;28;20111;-62
2023/10/20 08:54:41;;;;;;;5.53;3.47;;;;;;;;;;5053737;28;20048;-63
2023/10/20 08:57:08;;;;;;;9.65;6.25;;;;;;;;;;5052922;28;20049;-63
2023/10/20 08:59:37;;;;;;;6.53;3.15;;;;;;;;;;5052732;28;20048;-63
2023/10/20 09:02:04;;;;;;;5.60;3.05;;;;;;;;;;5053695;28;20084;-62
2023/10/20 09:04:30;;;;;;;4.10;2.30;;;;;;;;;;5052974;28;20044;-65
2023/10/20 09:06:56;;;;;;;4.15;2.63;;;;;;;;;;5053049;28;20698;-63
2023/10/20 09:09:23;;;;;;;4.32;2.35;;;;;;;;;;5052957;28;20055;-62
2023/10/20 09:11:49;;;;;;;3.13;2.03;;;;;;;;;;5052936;28;20048;-63
2023/10/20 09:14:15;;;;;;;3.78;2.55;;;;;;;;;;5049488;28;20125;-62
2023/10/20 09:16:42;;;;;;;3.47;2.10;;;;;;;;;;5053361;28;20044;-62
2023/10/20 09:19:14;;;;;;;3.63;1.98;;;;;;;;;;5053217;28;20041;-63
2023/10/20 09:21:40;;;;;;;6.13;1.92;;;;;;;;;;5053246;28;20063;-64
2023/10/20 09:24:07;;;;;;;3.28;1.77;;;;;;;;;;5053413;28;20052;-63
2023/10/20 09:26:34;;;;;;;2.22;1.90;;;;;;;;;;5053146;28;20407;-63
2023/10/20 09:29:01;;;;;;;3.05;1.60;;;;;;;;;;5051767;28;20049;-62
2023/10/20 09:31:27;;;;;;;3.42;2.08;;;;;;;;;;5052980;28;20041;-63
2023/10/20 09:33:54;;;;;;;3.50;1.88;;;;;;;;;;5053437;28;20037;-63
2023/10/20 09:36:24;;;;;;;2.72;1.55;;;;;;;;;;5052719;28;20048;-63
2023/10/20 09:38:54;;;;;;;3.03;1.80;;;;;;;;;;5052855;28;20052;-63
2023/10/20 09:41:23;;;;;;;3.45;1.95;;;;;;;;;;5052926;28;20182;-63
2023/10/20 09:43:53;;;;;;;3.30;1.58;;;;;;;;;;5052579;28;20049;-62
2023/10/20 09:46:41;;;;;;;2.67;1.60;;;;;;;;;;5052798;28;20045;-63
2023/10/20 09:49:25;;;;;;;2.63;1.70;;;;;;;;;;5052439;28;20052;-64
2023/10/20 09:51:52;;;;;;;1.23;1.10;;;;;;;;;;5052683;28;20033;-64
2023/10/20 09:54:22;;;;;;;2.13;1.73;;;;;;;;;;5052501;28;20069;-64
2023/10/20 09:56:49;;;;;;;2.20;1.65;;;;;;;;;;5052356;28;20496;-64
2023/10/20 09:59:20;;;;;;;1.98;1.48;;;;;;;;;;5033388;28;20045;-64
2023/10/20 10:01:46;;;;;;;2.15;1.50;;;;;;;;;;5050297;28;20071;-63
2023/10/20 10:04:13;;;;;;;1.67;1.52;;;;;;;;;;5052325;28;20107;-63
2023/10/20 10:06:39;;;;;;;2.80;1.70;;;;;;;;;;5052112;28;20047;-63
2023/10/20 10:09:05;;;;;;;2.22;1.50;;;;;;;;;;5052355;28;20048;-63
2023/10/20 10:11:34;;;;;;;2.80;1.67;;;;;;;;;;5052772;28;20375;-63
2023/10/20 10:14:04;;;;;;;1.60;1.42;;;;;;;;;;5052089;28;20048;-63
2023/10/20 10:16:31;;;;;;;3.08;1.15;;;;;;;;;;5052544;28;20053;-62
2023/10/20 10:19:07;;;;;;;1.90;1.20;;;;;;;;;;5052176;28;20159;-62
2023/10/20 10:21:37;;;;;;;1.20;1.10;;;;;;;;;;5052335;28;20136;-63
2023/10/20 10:24:31;;;;;;;8.32;4.28;;;;;;;;;;5052124;28;20052;-63
2023/10/20 10:27:03;;;;;;;1.83;1.50;;;;;;;;;;5048999;28;20136;-63
2023/10/20 10:29:53;;;;;;;1.50;1.02;;;;;;;;;;5051963;28;20119;-63
2023/10/20 10:32:20;;;;;;;1.27;1.13;;;;;;;;;;5051929;28;20103;-62
2023/10/20 10:34:47;;;;;;;1.40;1.23;;;;;;;;;;5051717;28;20040;-62
2023/10/20 10:37:14;;;;;;;1.20;1.10;;;;;;;;;;5034146;28;20492;-64
2023/10/20 10:39:40;;;;;;;1.63;1.25;;;;;;;;;;5051652;28;20112;-63
2023/10/20 10:42:07;;;;;;;2.10;1.10;;;;;;;;;;5051628;28;20587;-63
2023/10/20 10:44:36;;;;;;;1.30;1.10;;;;;;;;;;5052030;28;20091;-63
2023/10/20 10:47:03;;;;;;;2.25;1.00;;;;;;;;;;5033855;28;20395;-62
2023/10/20 10:49:32;;;;;;;1.15;1.05;;;;;;;;;;5051756;28;20043;-62
2023/10/20 10:52:04;;;;;;;0.85;0.85;;;;;;;;;;5029805;28;20076;-64
2023/10/20 10:54:33;;;;;;;1.83;0.68;;;;;;;;;;5031935;28;20053;-63
2023/10/20 10:57:03;;;;;;;1.30;1.10;;;;;;;;;;5043240;28;20054;-63
2023/10/20 10:59:29;;;;;;;1.55;0.85;;;;;;;;;;5033972;28;20395;-64
2023/10/20 11:01:56;;;;;;;2.10;0.85;;;;;;;;;;5051625;28;20453;-63
2023/10/20 11:04:22;;;;;;;0.85;0.85;;;;;;;;;;5051614;28;20659;-63
2023/10/20 11:06:48;;;;;;;0.93;0.85;;;;;;;;;;5050818;28;20163;-63
2023/10/20 11:09:19;;;;;;;2.85;0.90;;;;;;;;;;5051404;28;20037;-62
2023/10/20 11:11:47;;;;;;;1.35;0.80;;;;;;;;;;5051073;28;20041;-62
2023/10/20 11:14:17;;;;;;;1.10;0.82;;;;;;;;;;5051788;28;20041;-62
2023/10/20 11:16:43;;;;;;;0.90;0.80;;;;;;;;;;5051154;28;20044;-64
2023/10/20 11:19:11;;;;;;;1.38;0.80;;;;;;;;;;5051087;28;20392;-64
2023/10/20 11:21:48;;;;;;;0.68;0.60;;;;;;;;;;5051578;28;20125;-64
2023/10/20 11:24:34;;;;;;;0.95;0.85;;;;;;;;;;5051556;28;20040;-64
2023/10/20 11:27:05;;;;;;;0.80;0.60;;;;;;;;;;5050916;28;20612;-64
2023/10/20 11:29:32;;;;;;;0.80;0.60;;;;;;;;;;5051400;28;20047;-64
2023/10/20 11:32:00;;;;;;;0.60;0.60;;;;;;;;;;5051379;28;20036;-63
2023/10/20 11:34:27;;;;;;;0.65;0.65;;;;;;;;;;5051203;28;20120;-63
2023/10/20 11:36:53;;;;;;;0.60;0.60;;;;;;;;;;5050716;28;20099;-63
2023/10/20 11:39:24;;;;;;;0.80;0.77;;;;;;;;;;5051229;28;20635;-64
2023/10/20 11:41:50;;;;;;;0.83;0.60;;;;;;;;;;5050812;28;20080;-63
2023/10/20 11:44:17;;;;;;;1.50;0.70;;;;;;;;;;5051202;28;20642;-63
2023/10/20 11:46:43;;;;;;;1.60;0.77;;;;;;;;;;5051050;28;20423;-63
2023/10/20 11:49:13;;;;;;;0.60;0.60;;;;;;;;;;5046411;28;20037;-63
2023/10/20 11:51:39;;;;;;;0.90;0.60;;;;;;;;;;5051243;28;20044;-63
2023/10/20 11:54:06;;;;;;;1.95;0.98;;;;;;;;;;5050512;28;20061;-63
2023/10/20 11:56:32;;;;;;;0.77;0.77;;;;;;;;;;5050271;28;20057;-63
2023/10/20 11:58:58;;;;;;;0.65;0.65;;;;;;;;;;5032550;28;20083;-64
2023/10/20 12:01:24;;;;;;;3.00;0.68;;;;;;;;;;5050871;28;20407;-63
2023/10/20 12:03:50;;;;;;;0.85;0.80;;;;;;;;;;5050142;28;20045;-64
2023/10/20 12:06:16;;;;;;;1.20;0.80;;;;;;;;;;5050717;28;20131;-65
2023/10/20 12:08:42;;;;;;;1.08;0.70;;;;;;;;;;5050698;28;20037;-64
2023/10/20 12:11:09;;;;;;;1.20;0.80;;;;;;;;;;5050709;28;20052;-65
2023/10/20 12:13:36;;;;;;;1.60;0.60;;;;;;;;;;5050584;28;20122;-64
2023/10/20 12:16:08;;;;;;;0.60;0.60;;;;;;;;;;5050621;28;20049;-63
2023/10/20 12:18:34;;;;;;;0.88;0.70;;;;;;;;;;5050464;28;20044;-63
2023/10/20 12:21:00;;;;;;;1.40;0.55;;;;;;;;;;5049980;28;20045;-63
2023/10/20 12:23:26;;;;;;;1.77;0.80;;;;;;;;;;5050763;28;20387;-63
2023/10/20 12:25:52;;;;;;;0.60;0.55;;;;;;;;;;5049742;28;20040;-63
2023/10/20 12:28:18;;;;;;;0.60;0.60;;;;;;;;;;5050310;28;20036;-63
2023/10/20 12:30:44;;;;;;;0.90;0.50;;;;;;;;;;5050504;28;20422;-63
2023/10/20 12:33:10;;;;;;;1.27;0.60;;;;;;;;;;5032161;28;20129;-63
2023/10/20 12:35:36;;;;;;;0.63;0.60;;;;;;;;;;5050732;28;20037;-64
2023/10/20 12:38:02;;;;;;;1.05;0.80;;;;;;;;;;5050153;28;20049;-66
2023/10/20 12:40:28;;;;;;;1.27;0.50;;;;;;;;;;5016086;28;20049;-59
2023/10/20 12:42:54;;;;;;;0.70;0.70;;;;;;;;;;5050257;28;20048;-62
2023/10/20 12:45:21;;;;;;;1.40;0.60;;;;;;;;;;5049849;28;20403;-63
2023/10/20 12:47:47;;;;;;;1.05;0.70;;;;;;;;;;5050054;28;20441;-60
2023/10/20 12:50:13;;;;;;;0.63;0.63;;;;;;;;;;5047957;28;20095;-61
2023/10/20 12:52:39;;;;;;;0.63;0.63;;;;;;;;;;5031934;28;20503;-61
2023/10/20 12:55:05;;;;;;;1.80;0.70;;;;;;;;;;5049875;28;20102;-61
2023/10/20 12:57:32;;;;;;;0.70;0.70;;;;;;;;;;5049876;28;20709;-60
2023/10/20 12:59:58;;;;;;;1.77;0.90;;;;;;;;;;5049925;28;20041;-61
2023/10/20 13:02:24;;;;;;;0.95;0.80;;;;;;;;;;5049620;28;20235;-60
2023/10/20 13:04:51;;;;;;;0.82;0.82;;;;;;;;;;5042526;28;20091;-61
2023/10/20 13:07:17;;;;;;;0.85;0.60;;;;;;;;;;5049920;28;20076;-61
2023/10/20 13:09:43;;;;;;;0.63;0.63;;;;;;;;;;5049128;28;20086;-62
2023/10/20 13:12:09;;;;;;;0.75;0.60;;;;;;;;;;5050002;28;20090;-60
2023/10/20 13:14:36;;;;;;;0.60;0.60;;;;;;;;;;5049972;28;20128;-61
2023/10/20 13:17:03;;;;;;;0.50;0.50;;;;;;;;;;5049364;28;20049;-61
2023/10/20 13:19:29;;;;;;;0.75;0.50;;;;;;;;;;5049507;28;20129;-62
2023/10/20 13:21:55;;;;;;;0.60;0.60;;;;;;;;;;5049223;28;20152;-60
2023/10/20 13:24:23;;;;;;;0.63;0.50;;;;;;;;;;5049674;28;20479;-61
2023/10/20 13:26:51;;;;;;;0.50;0.50;;;;;;;;;;5049367;28;20048;-62
2023/10/20 13:29:17;;;;;;;0.82;0.50;;;;;;;;;;5049575;28;20045;-61
2023/10/20 13:31:43;;;;;;;0.43;0.43;;;;;;;;;;5049462;28;20377;-62
2023/10/20 13:34:10;;;;;;;1.23;0.47;;;;;;;;;;5052229;28;20043;-61
2023/10/20 13:36:36;;;;;;;0.45;0.45;;;;;;;;;;5052974;28;20667;-61
2023/10/20 13:39:02;;;;;;;0.40;0.40;;;;;;;;;;5052538;28;20045;-60
2023/10/20 13:41:28;;;;;;;0.50;0.40;;;;;;;;;;5053055;28;20072;-58
2023/10/20 13:43:54;;;;;;;0.40;0.40;;;;;;;;;;5053377;28;20360;-60
2023/10/20 13:46:20;;;;;;;0.90;0.50;;;;;;;;;;5052511;28;20731;-61
2023/10/20 13:48:47;;;;;;;1.33;0.47;;;;;;;;;;5049376;28;20135;-63
2023/10/20 13:51:13;;;;;;;0.57;0.40;;;;;;;;;;5052903;28;20494;-63
2023/10/20 13:53:39;;;;;;;0.57;0.30;;;;;;;;;;5052934;28;20101;-63
2023/10/20 13:56:05;;;;;;;0.40;0.40;;;;;;;;;;5052842;28;20049;-63
2023/10/20 13:58:31;;;;;;;0.98;0.80;;;;;;;;;;5053195;28;20375;-63
2023/10/20 14:00:58;;;;;;;0.65;0.43;;;;;;;;;;5053103;28;20053;-64
2023/10/20 14:03:25;;;;;;;0.38;0.38;;;;;;;;;;5052974;28;20045;-64
2023/10/20 14:05:54;;;;;;;1.08;0.50;;;;;;;;;;5052848;28;20041;-64
2023/10/20 14:08:21;;;;;;;0.38;0.38;;;;;;;;;;5053050;28;20040;-64
2023/10/20 14:10:48;;;;;;;0.75;0.60;;;;;;;;;;5052352;28;20033;-64
2023/10/20 14:13:14;;;;;;;0.90;0.57;;;;;;;;;;5053089;28;20052;-64
2023/10/20 14:15:42;;;;;;;1.45;0.60;;;;;;;;;;5052730;28;20063;-64
2023/10/20 14:18:08;;;;;;;2.17;0.50;;;;;;;;;;5052356;28;20391;-64
2023/10/20 14:20:34;;;;;;;0.63;0.40;;;;;;;;;;5052435;28;20041;-64
2023/10/20 14:23:03;;;;;;;0.40;0.40;;;;;;;;;;5052800;28;20049;-64
2023/10/20 14:25:29;;;;;;;1.20;0.50;;;;;;;;;;5052320;28;20130;-64
2023/10/20 14:27:55;;;;;;;0.30;0.30;;;;;;;;;;5052486;28;20455;-64
2023/10/20 14:30:21;;;;;;;0.30;0.30;;;;;;;;;;5052535;28;20041;-64
2023/10/20 14:32:47;;;;;;;0.93;0.70;;;;;;;;;;5052135;28;20041;-64
2023/10/20 14:35:13;;;;;;;0.30;0.30;;;;;;;;;;5052533;28;20044;-64
2023/10/20 14:37:39;;;;;;;2.88;0.60;;;;;;;;;;5052550;28;20091;-64
2023/10/20 14:40:06;;;;;;;0.30;0.30;;;;;;;;;;5051896;28;20647;-64
2023/10/20 14:42:32;;;;;;;0.32;0.32;;;;;;;;;;5034127;28;20045;-64
2023/10/20 14:44:59;;;;;;;0.32;0.32;;;;;;;;;;5051996;28;20423;-64
2023/10/20 14:47:25;;;;;;;0.45;0.40;;;;;;;;;;5051911;28;20037;-64
2023/10/20 14:49:53;;;;;;;3.28;0.43;;;;;;;;;;5052287;28;20037;-64
2023/10/20 14:52:19;;;;;;;1.20;0.50;;;;;;;;;;5052217;28;20654;-64
2023/10/20 14:54:46;;;;;;;0.25;0.25;;;;;;;;;;5051433;28;20087;-64
2023/10/20 14:57:12;;;;;;;0.60;0.40;;;;;;;;;;5052200;28;20125;-64